sensor_id;sensor_type;location;lat;lon;timestamp;pressure;altitude;pressure_sealevel;temperature;humidity
61205;BME280;47068;55.780;37.520;2022-12-18T00:00:05;99527.38;;;-2.29;99.25
61205;BME280;47068;55.780;37.520;2022-12-18T00:02:31;99503.31;;;-2.34;98.68
61205;BME280;47068;55.780;37.520;2022-12-18T00:04:56;99509.72;;;-2.40;98.53
61205;BME280;47068;55.780;37.520;2022-12-18T00:07:22;99500.50;;;-2.45;97.46
61205;BME280;47068;55.780;37.520;2022-12-18T00:09:47;99486.63;;;-2.46;97.64
61205;BME280;47068;55.780;37.520;2022-12-18T00:12:13;99488.19;;;-2.27;98.38
61205;BME280;47068;55.780;37.520;2022-12-18T00:14:38;99485.94;;;-2.33;98.48
61205;BME280;47068;55.780;37.520;2022-12-18T00:17:04;99482.34;;;-2.47;97.42
61205;BME280;47068;55.780;37.520;2022-12-18T00:19:29;99483.03;;;-2.43;97.30
61205;BME280;47068;55.780;37.520;2022-12-18T00:21:54;99471.56;;;-2.41;97.76
61205;BME280;47068;55.780;37.520;2022-12-18T00:24:20;99474.81;;;-2.51;97.38
61205;BME280;47068;55.780;37.520;2022-12-18T00:26:45;99448.44;;;-2.61;97.89
61205;BME280;47068;55.780;37.520;2022-12-18T00:29:12;99400.81;;;-2.93;98.44
61205;BME280;47068;55.780;37.520;2022-12-18T00:31:42;99460.50;;;-2.44;98.82
61205;BME280;47068;55.780;37.520;2022-12-18T00:34:10;99455.53;;;-2.49;99.04
61205;BME280;47068;55.780;37.520;2022-12-18T00:36:36;99448.56;;;-2.48;98.86
61205;BME280;47068;55.780;37.520;2022-12-18T00:39:04;99450.59;;;-2.53;98.78
61205;BME280;47068;55.780;37.520;2022-12-18T00:41:30;99423.09;;;-2.73;98.63
61205;BME280;47068;55.780;37.520;2022-12-18T00:44:16;99403.22;;;-2.90;98.73
61205;BME280;47068;55.780;37.520;2022-12-18T00:46:43;99443.22;;;-2.61;98.61
61205;BME280;47068;55.780;37.520;2022-12-18T00:49:09;99442.78;;;-2.53;99.13
61205;BME280;47068;55.780;37.520;2022-12-18T00:51:38;99412.16;;;-2.64;99.00
61205;BME280;47068;55.780;37.520;2022-12-18T00:54:05;99437.72;;;-2.41;99.49
61205;BME280;47068;55.780;37.520;2022-12-18T00:56:31;99404.59;;;-2.68;99.76
61205;BME280;47068;55.780;37.520;2022-12-18T00:58:56;99422.91;;;-2.40;100.00
61205;BME280;47068;55.780;37.520;2022-12-18T01:01:22;99415.47;;;-2.46;100.00
61205;BME280;47068;55.780;37.520;2022-12-18T01:03:47;99422.84;;;-2.39;100.00
61205;BME280;47068;55.780;37.520;2022-12-18T01:06:14;99412.41;;;-2.39;100.00
61205;BME280;47068;55.780;37.520;2022-12-18T01:08:41;99347.69;;;-2.74;100.00
61205;BME280;47068;55.780;37.520;2022-12-18T01:11:11;99363.81;;;-2.54;100.00
61205;BME280;47068;55.780;37.520;2022-12-18T01:13:38;99398.41;;;-2.22;100.00
61205;BME280;47068;55.780;37.520;2022-12-18T01:16:03;99384.81;;;-2.13;100.00
61205;BME280;47068;55.780;37.520;2022-12-18T01:18:29;99322.94;;;-2.23;100.00
61205;BME280;47068;55.780;37.520;2022-12-18T01:20:55;99388.09;;;-1.81;100.00
61205;BME280;47068;55.780;37.520;2022-12-18T01:23:20;99383.50;;;-1.77;100.00
61205;BME280;47068;55.780;37.520;2022-12-18T01:25:46;99383.59;;;-1.79;100.00
61205;BME280;47068;55.780;37.520;2022-12-18T01:28:11;99379.59;;;-1.84;100.00
61205;BME280;47068;55.780;37.520;2022-12-18T01:30:37;99384.66;;;-1.81;100.00
61205;BME280;47068;55.780;37.520;2022-12-18T01:33:04;99385.28;;;-1.78;100.00
61205;BME280;47068;55.780;37.520;2022-12-18T01:35:31;99394.88;;;-1.64;100.00
61205;BME280;47068;55.780;37.520;2022-12-18T01:37:56;99392.91;;;-1.61;100.00
61205;BME280;47068;55.780;37.520;2022-12-18T01:40:22;99383.31;;;-1.60;100.00
61205;BME280;47068;55.780;37.520;2022-12-18T01:42:54;99385.28;;;-1.64;100.00
61205;BME280;47068;55.780;37.520;2022-12-18T01:45:24;99385.56;;;-1.54;100.00
61205;BME280;47068;55.780;37.520;2022-12-18T01:48:02;99388.06;;;-1.52;100.00
61205;BME280;47068;55.780;37.520;2022-12-18T01:50:36;99397.47;;;-1.50;100.00
61205;BME280;47068;55.780;37.520;2022-12-18T01:55:31;99387.56;;;-1.45;100.00
61205;BME280;47068;55.780;37.520;2022-12-18T01:57:58;99387.03;;;-1.50;100.00
61205;BME280;47068;55.780;37.520;2022-12-18T02:00:25;99377.88;;;-1.43;100.00
61205;BME280;47068;55.780;37.520;2022-12-18T02:02:51;99350.13;;;-1.58;100.00
61205;BME280;47068;55.780;37.520;2022-12-18T02:05:54;99389.81;;;-1.39;100.00
61205;BME280;47068;55.780;37.520;2022-12-18T02:08:27;99381.03;;;-1.38;100.00
61205;BME280;47068;55.780;37.520;2022-12-18T02:16:59;99389.81;;;-1.39;100.00
61205;BME280;47068;55.780;37.520;2022-12-18T02:19:37;99387.09;;;-1.37;100.00
61205;BME280;47068;55.780;37.520;2022-12-18T02:22:29;99391.22;;;-1.47;100.00
61205;BME280;47068;55.780;37.520;2022-12-18T02:27:39;99399.69;;;-1.58;100.00
61205;BME280;47068;55.780;37.520;2022-12-18T02:30:06;99393.38;;;-1.54;100.00
61205;BME280;47068;55.780;37.520;2022-12-18T02:32:39;99323.09;;;-1.98;100.00
61205;BME280;47068;55.780;37.520;2022-12-18T02:35:11;99378.66;;;-1.55;100.00
61205;BME280;47068;55.780;37.520;2022-12-18T02:37:39;99330.06;;;-1.84;100.00
61205;BME280;47068;55.780;37.520;2022-12-18T02:40:06;99394.47;;;-1.58;100.00
61205;BME280;47068;55.780;37.520;2022-12-18T02:42:33;99391.31;;;-1.63;100.00
61205;BME280;47068;55.780;37.520;2022-12-18T02:44:58;99387.13;;;-1.66;100.00
61205;BME280;47068;55.780;37.520;2022-12-18T02:47:28;99372.69;;;-1.71;100.00
61205;BME280;47068;55.780;37.520;2022-12-18T02:50:17;99390.88;;;-1.70;100.00
61205;BME280;47068;55.780;37.520;2022-12-18T03:01:30;99371.41;;;-1.78;100.00
61205;BME280;47068;55.780;37.520;2022-12-18T03:04:02;99390.25;;;-1.73;100.00
61205;BME280;47068;55.780;37.520;2022-12-18T03:06:40;99386.31;;;-1.66;100.00
61205;BME280;47068;55.780;37.520;2022-12-18T03:09:14;99379.03;;;-1.61;100.00
61205;BME280;47068;55.780;37.520;2022-12-18T03:11:45;99381.56;;;-1.60;100.00
61205;BME280;47068;55.780;37.520;2022-12-18T03:14:33;99376.06;;;-1.69;100.00
61205;BME280;47068;55.780;37.520;2022-12-18T03:17:04;99370.56;;;-1.79;100.00
61205;BME280;47068;55.780;37.520;2022-12-18T03:19:32;99375.59;;;-1.76;100.00
61205;BME280;47068;55.780;37.520;2022-12-18T03:22:00;99371.53;;;-1.80;100.00
61205;BME280;47068;55.780;37.520;2022-12-18T03:24:29;99387.63;;;-1.73;100.00
61205;BME280;47068;55.780;37.520;2022-12-18T03:27:00;99365.00;;;-1.87;100.00
61205;BME280;47068;55.780;37.520;2022-12-18T03:29:42;99377.53;;;-1.79;100.00
61205;BME280;47068;55.780;37.520;2022-12-18T03:32:23;99385.56;;;-1.82;100.00
61205;BME280;47068;55.780;37.520;2022-12-18T03:34:51;99392.47;;;-1.81;100.00
61205;BME280;47068;55.780;37.520;2022-12-18T03:37:18;99383.72;;;-1.80;100.00
61205;BME280;47068;55.780;37.520;2022-12-18T03:39:44;99395.63;;;-1.76;99.95
61205;BME280;47068;55.780;37.520;2022-12-18T03:42:28;99391.34;;;-1.77;100.00
61205;BME280;47068;55.780;37.520;2022-12-18T03:45:02;99397.22;;;-1.74;99.73
61205;BME280;47068;55.780;37.520;2022-12-18T03:55:34;99375.69;;;-1.91;98.98
61205;BME280;47068;55.780;37.520;2022-12-18T03:58:02;99372.72;;;-2.00;98.74
61205;BME280;47068;55.780;37.520;2022-12-18T04:00:29;99378.50;;;-1.94;98.89
61205;BME280;47068;55.780;37.520;2022-12-18T04:02:57;99378.31;;;-1.91;98.94
61205;BME280;47068;55.780;37.520;2022-12-18T04:05:25;99363.97;;;-1.99;98.97
61205;BME280;47068;55.780;37.520;2022-12-18T04:07:51;99378.13;;;-1.88;99.19
61205;BME280;47068;55.780;37.520;2022-12-18T04:10:18;99379.06;;;-1.89;98.95
61205;BME280;47068;55.780;37.520;2022-12-18T04:12:44;99394.63;;;-1.88;99.01
61205;BME280;47068;55.780;37.520;2022-12-18T04:15:10;99306.84;;;-2.30;99.06
61205;BME280;47068;55.780;37.520;2022-12-18T04:17:37;99404.75;;;-1.83;99.43
61205;BME280;47068;55.780;37.520;2022-12-18T04:20:03;99386.50;;;-1.98;99.34
61205;BME280;47068;55.780;37.520;2022-12-18T04:22:29;99411.34;;;-1.92;99.00
61205;BME280;47068;55.780;37.520;2022-12-18T04:24:54;99417.63;;;-1.94;98.90
61205;BME280;47068;55.780;37.520;2022-12-18T04:27:20;99426.72;;;-2.02;98.99
61205;BME280;47068;55.780;37.520;2022-12-18T04:29:45;99434.25;;;-1.97;99.08
61205;BME280;47068;55.780;37.520;2022-12-18T04:32:11;99427.38;;;-1.98;99.00
61205;BME280;47068;55.780;37.520;2022-12-18T04:34:36;99449.91;;;-1.97;98.92
61205;BME280;47068;55.780;37.520;2022-12-18T04:37:02;99454.16;;;-2.10;98.60
61205;BME280;47068;55.780;37.520;2022-12-18T04:39:28;99455.94;;;-2.11;98.98
61205;BME280;47068;55.780;37.520;2022-12-18T04:41:53;99447.63;;;-2.17;98.50
61205;BME280;47068;55.780;37.520;2022-12-18T04:44:18;99444.66;;;-2.11;98.82
61205;BME280;47068;55.780;37.520;2022-12-18T04:46:44;99444.13;;;-2.16;98.59
61205;BME280;47068;55.780;37.520;2022-12-18T04:49:09;99443.03;;;-2.28;98.59
61205;BME280;47068;55.780;37.520;2022-12-18T04:51:38;99459.03;;;-2.04;98.68
61205;BME280;47068;55.780;37.520;2022-12-18T04:54:03;99471.75;;;-2.00;98.62
61205;BME280;47068;55.780;37.520;2022-12-18T04:56:30;99471.41;;;-2.08;98.04
61205;BME280;47068;55.780;37.520;2022-12-18T04:58:57;99462.78;;;-2.24;97.80
61205;BME280;47068;55.780;37.520;2022-12-18T05:01:22;99453.50;;;-2.14;97.77
61205;BME280;47068;55.780;37.520;2022-12-18T05:03:48;99458.53;;;-2.11;97.93
61205;BME280;47068;55.780;37.520;2022-12-18T05:06:14;99467.28;;;-2.12;97.93
61205;BME280;47068;55.780;37.520;2022-12-18T05:08:39;99458.47;;;-2.09;98.08
61205;BME280;47068;55.780;37.520;2022-12-18T05:11:08;99465.53;;;-2.11;97.97
61205;BME280;47068;55.780;37.520;2022-12-18T05:13:34;99460.38;;;-2.13;97.99
61205;BME280;47068;55.780;37.520;2022-12-18T05:16:01;99457.69;;;-2.11;98.40
61205;BME280;47068;55.780;37.520;2022-12-18T05:18:27;99267.41;;;-3.26;98.01
61205;BME280;47068;55.780;37.520;2022-12-18T05:20:53;99458.22;;;-2.20;98.26
61205;BME280;47068;55.780;37.520;2022-12-18T05:23:20;99470.56;;;-2.08;98.22
61205;BME280;47068;55.780;37.520;2022-12-18T05:25:56;99459.50;;;-2.27;98.15
61205;BME280;47068;55.780;37.520;2022-12-18T05:28:22;99483.94;;;-2.14;98.56
61205;BME280;47068;55.780;37.520;2022-12-18T05:30:53;99506.94;;;-2.07;98.07
61205;BME280;47068;55.780;37.520;2022-12-18T05:33:20;99510.84;;;-2.14;97.90
61205;BME280;47068;55.780;37.520;2022-12-18T05:35:57;99497.31;;;-2.20;97.88
61205;BME280;47068;55.780;37.520;2022-12-18T05:38:24;99492.66;;;-2.29;97.74
61205;BME280;47068;55.780;37.520;2022-12-18T05:40:50;99284.75;;;-3.57;97.58
61205;BME280;47068;55.780;37.520;2022-12-18T05:43:17;99513.56;;;-2.15;97.49
61205;BME280;47068;55.780;37.520;2022-12-18T05:45:43;99535.97;;;-2.13;97.29
61205;BME280;47068;55.780;37.520;2022-12-18T05:48:08;99522.09;;;-2.13;97.42
61205;BME280;47068;55.780;37.520;2022-12-18T05:50:35;99488.81;;;-2.38;96.90
61205;BME280;47068;55.780;37.520;2022-12-18T05:53:02;99517.13;;;-2.32;96.90
61205;BME280;47068;55.780;37.520;2022-12-18T05:55:28;99546.16;;;-2.08;97.15
61205;BME280;47068;55.780;37.520;2022-12-18T05:57:54;99554.56;;;-2.19;96.81
61205;BME280;47068;55.780;37.520;2022-12-18T06:00:19;99541.63;;;-2.20;96.94
61205;BME280;47068;55.780;37.520;2022-12-18T06:02:48;99493.47;;;-2.59;96.56
61205;BME280;47068;55.780;37.520;2022-12-18T06:05:14;99551.56;;;-2.27;97.07
61205;BME280;47068;55.780;37.520;2022-12-18T06:07:39;99552.47;;;-2.28;96.29
61205;BME280;47068;55.780;37.520;2022-12-18T06:10:06;99522.84;;;-2.41;96.31
61205;BME280;47068;55.780;37.520;2022-12-18T06:12:31;99564.34;;;-2.22;96.06
61205;BME280;47068;55.780;37.520;2022-12-18T06:14:59;99543.84;;;-2.28;96.10
61205;BME280;47068;55.780;37.520;2022-12-18T06:17:30;99555.94;;;-2.27;95.19
61205;BME280;47068;55.780;37.520;2022-12-18T06:19:57;99573.44;;;-2.29;94.28
61205;BME280;47068;55.780;37.520;2022-12-18T06:22:23;99574.00;;;-2.40;93.51
61205;BME280;47068;55.780;37.520;2022-12-18T06:24:48;99592.09;;;-2.37;93.26
61205;BME280;47068;55.780;37.520;2022-12-18T06:27:14;99596.72;;;-2.42;93.30
61205;BME280;47068;55.780;37.520;2022-12-18T06:29:39;99593.28;;;-2.43;93.53
61205;BME280;47068;55.780;37.520;2022-12-18T06:32:05;99598.22;;;-2.38;93.71
61205;BME280;47068;55.780;37.520;2022-12-18T06:34:31;99580.50;;;-2.47;93.98
61205;BME280;47068;55.780;37.520;2022-12-18T06:36:57;99592.44;;;-2.43;93.66
61205;BME280;47068;55.780;37.520;2022-12-18T06:39:23;99503.25;;;-2.94;93.64
61205;BME280;47068;55.780;37.520;2022-12-18T06:41:48;99612.16;;;-2.39;93.25
61205;BME280;47068;55.780;37.520;2022-12-18T06:44:13;99617.47;;;-2.41;93.31
61205;BME280;47068;55.780;37.520;2022-12-18T06:46:39;99628.56;;;-2.37;93.58
61205;BME280;47068;55.780;37.520;2022-12-18T06:49:05;99636.19;;;-2.34;93.55
61205;BME280;47068;55.780;37.520;2022-12-18T06:51:30;99644.00;;;-2.34;92.71
61205;BME280;47068;55.780;37.520;2022-12-18T06:53:55;99639.41;;;-2.29;93.13
61205;BME280;47068;55.780;37.520;2022-12-18T06:56:21;99609.22;;;-2.49;92.48
61205;BME280;47068;55.780;37.520;2022-12-18T06:58:50;99598.16;;;-2.52;92.19
61205;BME280;47068;55.780;37.520;2022-12-18T07:01:16;99608.41;;;-2.49;91.81
61205;BME280;47068;55.780;37.520;2022-12-18T07:03:41;99649.50;;;-2.23;91.65
61205;BME280;47068;55.780;37.520;2022-12-18T07:06:13;99659.00;;;-2.22;91.68
61205;BME280;47068;55.780;37.520;2022-12-18T07:08:40;99666.97;;;-2.25;90.98
61205;BME280;47068;55.780;37.520;2022-12-18T07:11:05;99621.94;;;-2.58;90.83
61205;BME280;47068;55.780;37.520;2022-12-18T07:13:31;99662.88;;;-2.29;91.04
61205;BME280;47068;55.780;37.520;2022-12-18T07:18:31;99670.59;;;-2.43;90.30
61205;BME280;47068;55.780;37.520;2022-12-18T07:20:57;99680.41;;;-2.48;90.23
61205;BME280;47068;55.780;37.520;2022-12-18T07:23:22;99672.91;;;-2.54;90.38
61205;BME280;47068;55.780;37.520;2022-12-18T07:25:48;99687.47;;;-2.50;91.04
61205;BME280;47068;55.780;37.520;2022-12-18T07:28:13;99679.03;;;-2.55;90.77
61205;BME280;47068;55.780;37.520;2022-12-18T07:30:39;99703.69;;;-2.45;90.21
61205;BME280;47068;55.780;37.520;2022-12-18T07:33:05;99706.53;;;-2.34;89.89
61205;BME280;47068;55.780;37.520;2022-12-18T07:35:30;99662.25;;;-2.65;89.74
61205;BME280;47068;55.780;37.520;2022-12-18T07:37:56;99683.34;;;-2.54;89.23
61205;BME280;47068;55.780;37.520;2022-12-18T07:40:21;99665.44;;;-2.60;88.75
61205;BME280;47068;55.780;37.520;2022-12-18T07:42:47;99724.28;;;-2.41;88.22
61205;BME280;47068;55.780;37.520;2022-12-18T07:45:12;99724.19;;;-2.39;87.82
61205;BME280;47068;55.780;37.520;2022-12-18T07:47:38;99717.81;;;-2.33;88.61
61205;BME280;47068;55.780;37.520;2022-12-18T07:50:04;99708.09;;;-2.30;89.09
61205;BME280;47068;55.780;37.520;2022-12-18T07:52:30;99705.72;;;-2.50;88.51
61205;BME280;47068;55.780;37.520;2022-12-18T07:54:56;99709.81;;;-2.46;88.24
61205;BME280;47068;55.780;37.520;2022-12-18T07:57:21;99683.41;;;-2.71;87.62
61205;BME280;47068;55.780;37.520;2022-12-18T07:59:47;99716.56;;;-2.42;88.66
61205;BME280;47068;55.780;37.520;2022-12-18T08:02:12;99717.47;;;-2.43;88.61
61205;BME280;47068;55.780;37.520;2022-12-18T08:04:37;99723.09;;;-2.35;88.53
61205;BME280;47068;55.780;37.520;2022-12-18T08:07:03;99735.53;;;-2.40;87.59
61205;BME280;47068;55.780;37.520;2022-12-18T08:09:28;99734.38;;;-2.34;88.23
61205;BME280;47068;55.780;37.520;2022-12-18T08:11:54;99742.88;;;-2.31;88.69
61205;BME280;47068;55.780;37.520;2022-12-18T08:14:19;99741.97;;;-2.30;88.20
61205;BME280;47068;55.780;37.520;2022-12-18T08:16:45;99692.78;;;-2.69;87.58
61205;BME280;47068;55.780;37.520;2022-12-18T08:19:10;99763.38;;;-2.25;88.27
61205;BME280;47068;55.780;37.520;2022-12-18T08:21:37;99772.91;;;-2.24;88.54
61205;BME280;47068;55.780;37.520;2022-12-18T08:24:02;99779.78;;;-2.23;87.65
61205;BME280;47068;55.780;37.520;2022-12-18T08:26:30;99790.63;;;-2.30;86.91
61205;BME280;47068;55.780;37.520;2022-12-18T08:28:57;99798.19;;;-2.26;87.07
61205;BME280;47068;55.780;37.520;2022-12-18T08:31:23;99807.53;;;-2.22;88.30
61205;BME280;47068;55.780;37.520;2022-12-18T08:33:50;99798.69;;;-2.19;88.64
61205;BME280;47068;55.780;37.520;2022-12-18T08:36:16;99791.56;;;-2.16;88.88
61205;BME280;47068;55.780;37.520;2022-12-18T08:38:42;99771.47;;;-2.29;89.05
61205;BME280;47068;55.780;37.520;2022-12-18T08:41:10;99783.75;;;-2.16;89.45
61205;BME280;47068;55.780;37.520;2022-12-18T08:43:36;99796.72;;;-1.99;89.92
61205;BME280;47068;55.780;37.520;2022-12-18T08:46:22;99800.25;;;-2.00;89.78
61205;BME280;47068;55.780;37.520;2022-12-18T08:48:50;99819.44;;;-2.01;88.79
61205;BME280;47068;55.780;37.520;2022-12-18T08:51:16;99814.38;;;-2.04;88.38
61205;BME280;47068;55.780;37.520;2022-12-18T08:53:44;99768.59;;;-2.25;88.99
61205;BME280;47068;55.780;37.520;2022-12-18T08:56:10;99779.53;;;-2.18;89.14
61205;BME280;47068;55.780;37.520;2022-12-18T08:58:36;99818.94;;;-1.91;89.71
61205;BME280;47068;55.780;37.520;2022-12-18T09:01:03;99808.50;;;-1.91;90.08
61205;BME280;47068;55.780;37.520;2022-12-18T09:03:30;99809.50;;;-1.78;90.55
61205;BME280;47068;55.780;37.520;2022-12-18T09:05:55;99806.91;;;-1.78;90.32
61205;BME280;47068;55.780;37.520;2022-12-18T09:08:21;99809.34;;;-1.75;90.34
61205;BME280;47068;55.780;37.520;2022-12-18T09:10:48;99815.50;;;-1.76;90.30
61205;BME280;47068;55.780;37.520;2022-12-18T09:13:15;99819.09;;;-1.79;89.78
61205;BME280;47068;55.780;37.520;2022-12-18T09:15:47;99821.19;;;-1.85;89.89
61205;BME280;47068;55.780;37.520;2022-12-18T09:18:14;99837.34;;;-1.79;90.54
61205;BME280;47068;55.780;37.520;2022-12-18T09:20:40;99815.91;;;-1.84;90.52
61205;BME280;47068;55.780;37.520;2022-12-18T09:23:07;99829.78;;;-1.83;89.76
61205;BME280;47068;55.780;37.520;2022-12-18T09:25:33;99843.25;;;-1.75;90.08
61205;BME280;47068;55.780;37.520;2022-12-18T09:28:19;99816.09;;;-1.87;90.05
61205;BME280;47068;55.780;37.520;2022-12-18T09:30:47;99854.63;;;-1.61;90.31
61205;BME280;47068;55.780;37.520;2022-12-18T09:33:12;99856.72;;;-1.51;90.39
61205;BME280;47068;55.780;37.520;2022-12-18T09:35:40;99863.22;;;-1.43;90.29
61205;BME280;47068;55.780;37.520;2022-12-18T09:38:06;99846.53;;;-1.56;89.65
61205;BME280;47068;55.780;37.520;2022-12-18T09:40:42;99872.31;;;-1.50;88.76
61205;BME280;47068;55.780;37.520;2022-12-18T09:43:14;99883.50;;;-1.48;89.10
61205;BME280;47068;55.780;37.520;2022-12-18T09:45:45;99858.50;;;-1.68;89.36
61205;BME280;47068;55.780;37.520;2022-12-18T09:48:22;99895.56;;;-1.45;88.70
61205;BME280;47068;55.780;37.520;2022-12-18T09:50:50;99901.78;;;-1.48;88.73
61205;BME280;47068;55.780;37.520;2022-12-18T09:53:24;99896.56;;;-1.48;89.02
61205;BME280;47068;55.780;37.520;2022-12-18T09:55:52;99893.19;;;-1.50;89.04
61205;BME280;47068;55.780;37.520;2022-12-18T09:58:30;99898.66;;;-1.54;89.24
61205;BME280;47068;55.780;37.520;2022-12-18T10:00:57;99902.19;;;-1.55;89.45
61205;BME280;47068;55.780;37.520;2022-12-18T10:03:23;99898.81;;;-1.58;89.92
61205;BME280;47068;55.780;37.520;2022-12-18T10:08:43;99909.41;;;-1.61;89.99
61205;BME280;47068;55.780;37.520;2022-12-18T10:14:18;99882.22;;;-1.72;89.43
61205;BME280;47068;55.780;37.520;2022-12-18T10:17:14;99918.94;;;-1.60;88.27
61205;BME280;47068;55.780;37.520;2022-12-18T10:19:46;99922.53;;;-1.62;87.53
61205;BME280;47068;55.780;37.520;2022-12-18T10:25:34;99922.47;;;-1.61;88.56
61205;BME280;47068;55.780;37.520;2022-12-18T10:28:16;99917.75;;;-1.54;89.06
61205;BME280;47068;55.780;37.520;2022-12-18T10:30:43;99907.41;;;-1.55;89.44
61205;BME280;47068;55.780;37.520;2022-12-18T10:33:21;99851.81;;;-1.89;90.13
61205;BME280;47068;55.780;37.520;2022-12-18T10:35:52;99912.88;;;-1.44;89.55
61205;BME280;47068;55.780;37.520;2022-12-18T10:43:36;99915.25;;;-1.40;89.95
61205;BME280;47068;55.780;37.520;2022-12-18T10:46:12;99918.44;;;-1.35;90.27
61205;BME280;47068;55.780;37.520;2022-12-18T10:48:56;99933.00;;;-1.31;90.72
61205;BME280;47068;55.780;37.520;2022-12-18T10:51:36;99936.63;;;-1.33;90.27
61205;BME280;47068;55.780;37.520;2022-12-18T10:54:05;99945.53;;;-1.37;89.03
61205;BME280;47068;55.780;37.520;2022-12-18T10:56:34;99947.03;;;-1.49;88.75
61205;BME280;47068;55.780;37.520;2022-12-18T11:01:45;99953.69;;;-1.43;89.54
61205;BME280;47068;55.780;37.520;2022-12-18T11:04:16;99968.19;;;-1.38;88.78
61205;BME280;47068;55.780;37.520;2022-12-18T11:06:57;99977.88;;;-1.40;88.36
61205;BME280;47068;55.780;37.520;2022-12-18T11:09:28;99944.38;;;-1.80;87.36
61205;BME280;47068;55.780;37.520;2022-12-18T11:11:56;99977.91;;;-1.57;87.38
61205;BME280;47068;55.780;37.520;2022-12-18T11:14:25;99993.25;;;-1.51;87.31
61205;BME280;47068;55.780;37.520;2022-12-18T11:16:51;99983.31;;;-1.60;87.02
61205;BME280;47068;55.780;37.520;2022-12-18T11:19:33;99947.66;;;-1.77;87.17
61205;BME280;47068;55.780;37.520;2022-12-18T11:22:00;99992.06;;;-1.61;86.21
61205;BME280;47068;55.780;37.520;2022-12-18T11:24:33;99968.78;;;-1.81;86.08
61205;BME280;47068;55.780;37.520;2022-12-18T11:27:04;99991.53;;;-1.68;86.61
61205;BME280;47068;55.780;37.520;2022-12-18T11:29:32;99993.22;;;-1.67;86.47
61205;BME280;47068;55.780;37.520;2022-12-18T11:32:37;99974.75;;;-1.79;86.93
61205;BME280;47068;55.780;37.520;2022-12-18T11:37:57;99999.44;;;-1.69;87.03
61205;BME280;47068;55.780;37.520;2022-12-18T11:40:32;99978.56;;;-1.86;86.94
61205;BME280;47068;55.780;37.520;2022-12-18T11:43:25;99975.81;;;-1.83;87.23
61205;BME280;47068;55.780;37.520;2022-12-18T11:48:44;99989.78;;;-1.84;86.80
61205;BME280;47068;55.780;37.520;2022-12-18T11:51:15;100015.69;;;-1.64;87.23
61205;BME280;47068;55.780;37.520;2022-12-18T11:53:45;100016.25;;;-1.75;86.65
61205;BME280;47068;55.780;37.520;2022-12-18T11:56:35;100023.38;;;-1.78;86.50
61205;BME280;47068;55.780;37.520;2022-12-18T11:59:16;100026.50;;;-1.72;86.64
61205;BME280;47068;55.780;37.520;2022-12-18T12:01:48;100045.63;;;-1.71;87.06
61205;BME280;47068;55.780;37.520;2022-12-18T12:10:04;100058.59;;;-1.87;85.77
61205;BME280;47068;55.780;37.520;2022-12-18T12:18:27;100075.06;;;-1.86;87.02
61205;BME280;47068;55.780;37.520;2022-12-18T12:21:39;100075.31;;;-1.91;87.10
61205;BME280;47068;55.780;37.520;2022-12-18T12:29:46;100097.25;;;-1.95;86.78
61205;BME280;47068;55.780;37.520;2022-12-18T12:32:20;100093.50;;;-1.89;87.44
61205;BME280;47068;55.780;37.520;2022-12-18T12:37:51;100104.91;;;-1.92;87.43
61205;BME280;47068;55.780;37.520;2022-12-18T12:40:20;100124.78;;;-1.89;87.24
61205;BME280;47068;55.780;37.520;2022-12-18T12:42:58;100116.19;;;-1.91;86.68
61205;BME280;47068;55.780;37.520;2022-12-18T12:48:27;100122.47;;;-1.95;86.50
61205;BME280;47068;55.780;37.520;2022-12-18T12:50:54;100140.72;;;-1.95;86.40
61205;BME280;47068;55.780;37.520;2022-12-18T12:53:27;100149.31;;;-1.93;86.50
61205;BME280;47068;55.780;37.520;2022-12-18T12:55:56;100145.66;;;-1.89;86.82
61205;BME280;47068;55.780;37.520;2022-12-18T13:03:49;100165.66;;;-1.90;87.38
61205;BME280;47068;55.780;37.520;2022-12-18T13:06:36;100173.72;;;-1.94;87.04
61205;BME280;47068;55.780;37.520;2022-12-18T13:09:03;100195.25;;;-1.91;87.17
61205;BME280;47068;55.780;37.520;2022-12-18T13:11:36;100192.59;;;-1.89;87.03
61205;BME280;47068;55.780;37.520;2022-12-18T13:20:11;100168.09;;;-2.04;87.19
61205;BME280;47068;55.780;37.520;2022-12-18T13:22:42;100207.44;;;-1.91;87.57
61205;BME280;47068;55.780;37.520;2022-12-18T13:28:06;100214.59;;;-1.95;86.38
61205;BME280;47068;55.780;37.520;2022-12-18T13:38:33;100238.13;;;-1.96;86.56
61205;BME280;47068;55.780;37.520;2022-12-18T13:41:00;100251.09;;;-1.95;86.51
61205;BME280;47068;55.780;37.520;2022-12-18T13:43:50;100244.81;;;-1.91;86.54
61205;BME280;47068;55.780;37.520;2022-12-18T13:46:30;100260.31;;;-1.88;87.25
61205;BME280;47068;55.780;37.520;2022-12-18T13:51:50;100267.44;;;-1.91;87.81
61205;BME280;47068;55.780;37.520;2022-12-18T13:56:49;100239.69;;;-2.11;87.52
61205;BME280;47068;55.780;37.520;2022-12-18T13:59:18;100072.50;;;-3.14;88.18
61205;BME280;47068;55.780;37.520;2022-12-18T14:04:37;100286.31;;;-1.86;88.01
61205;BME280;47068;55.780;37.520;2022-12-18T14:07:15;100294.22;;;-1.88;87.96
61205;BME280;47068;55.780;37.520;2022-12-18T14:09:47;100238.69;;;-2.27;87.61
61205;BME280;47068;55.780;37.520;2022-12-18T14:12:34;100316.84;;;-1.88;88.11
61205;BME280;47068;55.780;37.520;2022-12-18T14:20:24;100224.72;;;-2.64;87.31
61205;BME280;47068;55.780;37.520;2022-12-18T14:22:50;100336.56;;;-2.02;87.40
61205;BME280;47068;55.780;37.520;2022-12-18T14:27:50;100326.03;;;-2.19;86.86
61205;BME280;47068;55.780;37.520;2022-12-18T14:30:40;100349.38;;;-2.16;86.81
61205;BME280;47068;55.780;37.520;2022-12-18T14:33:10;100351.13;;;-2.16;87.01
61205;BME280;47068;55.780;37.520;2022-12-18T14:35:38;100349.22;;;-2.13;87.12
61205;BME280;47068;55.780;37.520;2022-12-18T14:41:10;100346.38;;;-2.27;87.17
61205;BME280;47068;55.780;37.520;2022-12-18T14:43:38;100358.31;;;-2.21;86.87
61205;BME280;47068;55.780;37.520;2022-12-18T14:46:37;100377.53;;;-2.24;86.76
61205;BME280;47068;55.780;37.520;2022-12-18T14:49:18;100378.66;;;-2.29;87.16
61205;BME280;47068;55.780;37.520;2022-12-18T14:51:56;100396.81;;;-2.28;86.88
61205;BME280;47068;55.780;37.520;2022-12-18T14:54:23;100406.22;;;-2.24;86.93
61205;BME280;47068;55.780;37.520;2022-12-18T14:57:04;100392.28;;;-2.23;86.17